KHTS

Tri-State / Milton J Ferguson Field Airport

Huntington, West Virginia, USA
KHTS 151135Z 1512/1612 20006KT P6SM FEW070 SCT250
Issued Valid From Valid To
Aug-15 @ 11:35 UTC
(an hour ago)
Aug-15 @ 12:00 UTC
(40 minutes ago)
Aug-16 @ 12:00 UTC
(in 23 hours)
Aug-15 @ 12:00 to Aug-16 @ 12:00
KHTS 151135Z 1512/1612 20006KT P6SM FEW070 SCT250
Wind Visibility Clouds
200° at 6 knots Greater than 6 miles
  • Few at 7,000' AGL
  • Scattered at 25,000' AGL
KHTS 151135Z 1512/1612 20006KT P6SM FEW070 SCT250
Issued Aug-15 @ 11:35 UTC
(an hour ago)
Valid From Aug-15 @ 12:00 UTC
(40 minutes ago)
Valid To Aug-16 @ 12:00 UTC
(in 23 hours)
Aug-15 @ 12:00 - Aug-16 @ 12:00
Wind Visibility
200° at 6 knots Greater than 6 miles
Clouds
  • Few at 7,000' AGL
  • Scattered at 25,000' AGL